Neidpath, Canada
Current Conditions -  °F | °C
As of 5:00 AM on Saturday 20 Dec 2014 (Local Time) from CYYN Reporting Station
Overcast Overcast  
Wind Chill: 25°   Ceiling: 6000
Heat Index: 34°   Visibility: 9mi
Dew Point: 30°   Wind: 13mph
Humidity: 87%   Direction: 230°SW
Pressure: 29.68"   Gusts: NA
Location:  50.23°N, 107.25°W
Report Text: CYYN 201100Z AUTO 23011KT 9SM FEW046 OVC060 01/M01 A2968 RMK SLP080
Loading
Personal Weather Stations






























Interactive Weather Map New forecast layout! Learn more

10-Day Weather Forecast

Advertisements
Track Severe Weather on mobile